Time;durP1;ratioP1;P1;durP2;ratioP2;P2;SDS_P1;SDS_P2;PMS_P1;PMS_P2;Temp;Humidity;BMP_temperature;BMP_pressure;BME280_temperature;BME280_humidity;BME280_pressure;Samples;Min_cycle;Max_cycle;Signal;HPM_P1;HPM_P2
2022/12/10 00:00:42;;;;;;;0.00;0.00;;;;;;;;;;5004800;28;20481;-70
2022/12/10 00:03:08;;;;;;;0.00;0.00;;;;;;;;;;5007415;28;20113;-70
2022/12/10 00:05:35;;;;;;;0.00;0.00;;;;;;;;;;5005259;28;20014;-70
2022/12/10 00:08:01;;;;;;;0.00;0.00;;;;;;;;;;4993696;28;20018;-70
2022/12/10 00:10:27;;;;;;;0.00;0.00;;;;;;;;;;5006031;28;20026;-70
2022/12/10 00:12:54;;;;;;;0.00;0.00;;;;;;;;;;5004567;28;20018;-69
2022/12/10 00:15:20;;;;;;;0.00;0.00;;;;;;;;;;5008935;28;20098;-69
2022/12/10 00:17:46;;;;;;;0.00;0.00;;;;;;;;;;4997159;28;20368;-69
2022/12/10 00:20:14;;;;;;;0.00;0.00;;;;;;;;;;4995963;28;20041;-69
2022/12/10 00:22:40;;;;;;;0.00;0.00;;;;;;;;;;4996574;28;20069;-70
2022/12/10 00:25:06;;;;;;;0.00;0.00;;;;;;;;;;5010129;28;20029;-70
2022/12/10 00:27:33;;;;;;;0.00;0.00;;;;;;;;;;5005883;28;20434;-70
2022/12/10 00:29:59;;;;;;;0.00;0.00;;;;;;;;;;5009241;28;20050;-69
2022/12/10 00:32:25;;;;;;;0.00;0.00;;;;;;;;;;5005695;28;20089;-69
2022/12/10 00:34:52;;;;;;;0.00;0.00;;;;;;;;;;5002636;28;20117;-69
2022/12/10 00:37:18;;;;;;;0.00;0.00;;;;;;;;;;5004660;28;20105;-69
2022/12/10 00:39:44;;;;;;;0.00;0.00;;;;;;;;;;4991847;28;20030;-68
2022/12/10 00:42:10;;;;;;;0.00;0.00;;;;;;;;;;4992118;28;20431;-68
2022/12/10 00:44:37;;;;;;;0.00;0.00;;;;;;;;;;4992362;28;20018;-69
2022/12/10 00:47:03;;;;;;;0.00;0.00;;;;;;;;;;5004225;28;20026;-68
2022/12/10 00:49:29;;;;;;;0.00;0.00;;;;;;;;;;5004992;28;20473;-70
2022/12/10 00:51:56;;;;;;;0.00;0.00;;;;;;;;;;4993333;28;20014;-69
2022/12/10 00:54:22;;;;;;;0.00;0.00;;;;;;;;;;4994186;28;20049;-69
2022/12/10 00:56:48;;;;;;;0.00;0.00;;;;;;;;;;4992153;28;20112;-69
2022/12/10 00:59:15;;;;;;;0.00;0.00;;;;;;;;;;4992221;28;20021;-69
2022/12/10 01:01:42;;;;;;;0.00;0.00;;;;;;;;;;4993607;28;20045;-69
2022/12/10 01:04:13;;;;;;;0.00;0.00;;;;;;;;;;5007509;28;20025;-70
2022/12/10 01:06:43;;;;;;;0.00;0.00;;;;;;;;;;5007352;28;20319;-69
2022/12/10 01:09:10;;;;;;;0.00;0.00;;;;;;;;;;4992838;28;20018;-69
2022/12/10 01:11:38;;;;;;;0.00;0.00;;;;;;;;;;5002447;28;20068;-70
2022/12/10 01:14:04;;;;;;;0.00;0.00;;;;;;;;;;5000385;28;20384;-69
2022/12/10 01:16:31;;;;;;;0.00;0.00;;;;;;;;;;4998804;28;20089;-69
2022/12/10 01:18:58;;;;;;;0.00;0.00;;;;;;;;;;5002540;28;20022;-68
2022/12/10 01:21:25;;;;;;;0.00;0.00;;;;;;;;;;4979772;28;20093;-69
2022/12/10 01:23:52;;;;;;;0.00;0.00;;;;;;;;;;4989583;28;20366;-69
2022/12/10 01:26:19;;;;;;;0.00;0.00;;;;;;;;;;5008824;28;20527;-69
2022/12/10 01:28:46;;;;;;;0.00;0.00;;;;;;;;;;4993106;28;20076;-69
2022/12/10 01:31:14;;;;;;;0.00;0.00;;;;;;;;;;4999504;28;20045;-69
2022/12/10 01:33:40;;;;;;;0.00;0.00;;;;;;;;;;4996908;28;20049;-69
2022/12/10 01:36:07;;;;;;;0.00;0.00;;;;;;;;;;5011027;28;20026;-69
2022/12/10 01:38:34;;;;;;;0.00;0.00;;;;;;;;;;4998405;28;20038;-69
2022/12/10 01:41:01;;;;;;;0.00;0.00;;;;;;;;;;5011282;28;20472;-70
2022/12/10 01:43:27;;;;;;;0.00;0.00;;;;;;;;;;4997275;28;20030;-69
2022/12/10 01:45:54;;;;;;;0.00;0.00;;;;;;;;;;4994919;28;20049;-69
2022/12/10 01:48:20;;;;;;;0.00;0.00;;;;;;;;;;4994600;28;20026;-69
2022/12/10 01:50:47;;;;;;;0.00;0.00;;;;;;;;;;4992107;28;20020;-69
2022/12/10 01:53:14;;;;;;;0.00;0.00;;;;;;;;;;5010820;28;20097;-69
2022/12/10 01:55:42;;;;;;;0.00;0.00;;;;;;;;;;5016195;28;20026;-69
2022/12/10 01:58:08;;;;;;;0.00;0.00;;;;;;;;;;5010104;28;20032;-69
2022/12/10 02:00:37;;;;;;;0.00;0.00;;;;;;;;;;5016234;28;20032;-69
2022/12/10 02:03:08;;;;;;;0.00;0.00;;;;;;;;;;5016405;28;20026;-69
2022/12/10 02:05:41;;;;;;;0.00;0.00;;;;;;;;;;4995474;28;20018;-69
2022/12/10 02:08:26;;;;;;;0.00;0.00;;;;;;;;;;4998454;28;20022;-69
2022/12/10 02:11:16;;;;;;;0.00;0.00;;;;;;;;;;4998096;28;20022;-69
2022/12/10 02:14:02;;;;;;;0.00;0.00;;;;;;;;;;4996864;28;20065;-70
2022/12/10 02:16:40;;;;;;;0.00;0.00;;;;;;;;;;4974286;28;20377;-70
2022/12/10 02:19:19;;;;;;;0.00;0.00;;;;;;;;;;5014430;28;20030;-69
2022/12/10 02:21:46;;;;;;;0.00;0.00;;;;;;;;;;5016243;28;20049;-69
2022/12/10 02:24:15;;;;;;;0.00;0.00;;;;;;;;;;4994739;28;20432;-69
2022/12/10 02:26:47;;;;;;;0.00;0.00;;;;;;;;;;4996285;28;20018;-69
2022/12/10 02:29:16;;;;;;;0.00;0.00;;;;;;;;;;4978975;28;20100;-69
2022/12/10 02:31:47;;;;;;;0.00;0.00;;;;;;;;;;4978847;28;20049;-69
2022/12/10 02:34:15;;;;;;;0.00;0.00;;;;;;;;;;5009453;28;20044;-71
2022/12/10 02:36:43;;;;;;;0.00;0.00;;;;;;;;;;5015431;28;20025;-71
2022/12/10 02:39:11;;;;;;;0.00;0.00;;;;;;;;;;4994779;28;20534;-69
2022/12/10 02:41:40;;;;;;;0.00;0.00;;;;;;;;;;4996362;28;20034;-70
2022/12/10 02:44:09;;;;;;;0.00;0.00;;;;;;;;;;5014914;28;20105;-69
2022/12/10 02:46:37;;;;;;;0.00;0.00;;;;;;;;;;4999857;28;20022;-69
2022/12/10 02:49:05;;;;;;;0.00;0.00;;;;;;;;;;5008819;28;20030;-70
2022/12/10 02:51:31;;;;;;;0.00;0.00;;;;;;;;;;4997439;28;20026;-70
2022/12/10 02:54:01;;;;;;;0.00;0.00;;;;;;;;;;4997640;28;20038;-70
2022/12/10 02:56:34;;;;;;;0.00;0.00;;;;;;;;;;4997913;28;20030;-70
2022/12/10 02:59:12;;;;;;;0.00;0.00;;;;;;;;;;5011732;28;20030;-71
2022/12/10 03:01:53;;;;;;;0.00;0.00;;;;;;;;;;5014205;28;20101;-69
2022/12/10 03:04:25;;;;;;;0.00;0.00;;;;;;;;;;5014448;28;20476;-69
2022/12/10 03:06:53;;;;;;;0.00;0.00;;;;;;;;;;5014387;28;20038;-68
2022/12/10 03:09:25;;;;;;;0.00;0.00;;;;;;;;;;4994090;28;20423;-69
2022/12/10 03:11:58;;;;;;;0.00;0.00;;;;;;;;;;5010459;28;20045;-69
2022/12/10 03:14:26;;;;;;;0.00;0.00;;;;;;;;;;5009564;28;20033;-69
2022/12/10 03:17:00;;;;;;;0.00;0.00;;;;;;;;;;4992459;28;20476;-69
2022/12/10 03:19:29;;;;;;;0.00;0.00;;;;;;;;;;4994498;28;20151;-70
2022/12/10 03:21:56;;;;;;;0.00;0.00;;;;;;;;;;5008642;28;20113;-70
2022/12/10 03:24:23;;;;;;;0.00;0.00;;;;;;;;;;4987319;28;20026;-69
2022/12/10 03:26:52;;;;;;;0.00;0.00;;;;;;;;;;5012589;28;20092;-69
2022/12/10 03:29:22;;;;;;;0.00;0.00;;;;;;;;;;4994392;28;20046;-71
2022/12/10 03:31:49;;;;;;;0.00;0.00;;;;;;;;;;5012757;28;20106;-71
2022/12/10 03:34:15;;;;;;;0.00;0.00;;;;;;;;;;4997144;28;20029;-69
2022/12/10 03:36:42;;;;;;;0.00;0.00;;;;;;;;;;4998867;28;20512;-69
2022/12/10 03:39:09;;;;;;;0.00;0.00;;;;;;;;;;5013766;28;20030;-69
2022/12/10 03:41:35;;;;;;;0.00;0.00;;;;;;;;;;5011374;28;20026;-69
2022/12/10 03:44:02;;;;;;;0.00;0.00;;;;;;;;;;5013341;28;20468;-70
2022/12/10 03:46:29;;;;;;;0.00;0.00;;;;;;;;;;5012556;28;20088;-70
2022/12/10 03:48:55;;;;;;;0.00;0.00;;;;;;;;;;4994213;28;20037;-70
2022/12/10 03:51:22;;;;;;;0.00;0.00;;;;;;;;;;4998267;28;20041;-71
2022/12/10 03:53:51;;;;;;;0.00;0.00;;;;;;;;;;4996569;28;20045;-71
2022/12/10 03:56:18;;;;;;;0.00;0.00;;;;;;;;;;5009702;28;20030;-71
2022/12/10 03:58:44;;;;;;;0.00;0.00;;;;;;;;;;5010749;28;20399;-72
2022/12/10 04:01:11;;;;;;;0.00;0.00;;;;;;;;;;5011726;28;20029;-71
2022/12/10 04:03:38;;;;;;;0.00;0.00;;;;;;;;;;4996429;28;20022;-72
2022/12/10 04:06:06;;;;;;;0.00;0.00;;;;;;;;;;5007932;28;20061;-71
2022/12/10 04:08:32;;;;;;;0.00;0.00;;;;;;;;;;4996227;28;20487;-72
2022/12/10 04:11:05;;;;;;;0.00;0.00;;;;;;;;;;5007515;28;20026;-71
2022/12/10 04:16:27;;;;;;;0.00;0.00;;;;;;;;;;5006987;28;20040;-69
2022/12/10 04:18:54;;;;;;;0.00;0.00;;;;;;;;;;5008680;28;20032;-71
2022/12/10 04:26:53;;;;;;;0.00;0.00;;;;;;;;;;5012171;28;20095;-70
2022/12/10 04:29:24;;;;;;;0.00;0.00;;;;;;;;;;5012318;28;20376;-71
2022/12/10 04:31:51;;;;;;;0.00;0.00;;;;;;;;;;4994624;28;20384;-70
2022/12/10 04:34:17;;;;;;;0.00;0.00;;;;;;;;;;4994132;28;20089;-70
2022/12/10 04:36:43;;;;;;;0.00;0.00;;;;;;;;;;5010475;28;20030;-72
2022/12/10 04:39:11;;;;;;;0.00;0.00;;;;;;;;;;5010320;28;20033;-74
2022/12/10 04:41:41;;;;;;;0.00;0.00;;;;;;;;;;4998719;28;20033;-74
2022/12/10 04:44:08;;;;;;;0.00;0.00;;;;;;;;;;4991867;28;20073;-73
2022/12/10 04:46:35;;;;;;;0.00;0.00;;;;;;;;;;4993446;28;20033;-72
2022/12/10 04:49:01;;;;;;;0.00;0.00;;;;;;;;;;4988613;28;20043;-70
2022/12/10 04:51:27;;;;;;;0.03;0.03;;;;;;;;;;4988796;28;20036;-71
2022/12/10 04:53:54;;;;;;;0.00;0.00;;;;;;;;;;4992704;28;20033;-70
2022/12/10 04:56:20;;;;;;;0.00;0.00;;;;;;;;;;4993272;28;20072;-71
2022/12/10 04:58:46;;;;;;;0.00;0.00;;;;;;;;;;5012103;28;20084;-71
2022/12/10 05:01:12;;;;;;;0.10;0.10;;;;;;;;;;5008588;28;20036;-69
2022/12/10 05:03:39;;;;;;;0.00;0.00;;;;;;;;;;4993373;28;20049;-71
2022/12/10 05:06:07;;;;;;;0.00;0.00;;;;;;;;;;4994365;28;20033;-73
2022/12/10 05:08:34;;;;;;;0.07;0.07;;;;;;;;;;4993893;28;20025;-74
2022/12/10 05:11:01;;;;;;;0.00;0.00;;;;;;;;;;4993937;28;20022;-74
2022/12/10 05:13:28;;;;;;;0.00;0.00;;;;;;;;;;5010891;28;20034;-74
2022/12/10 05:15:54;;;;;;;0.00;0.00;;;;;;;;;;4995592;28;20037;-73
2022/12/10 05:18:20;;;;;;;0.00;0.00;;;;;;;;;;5010850;28;20380;-72
2022/12/10 05:20:47;;;;;;;0.00;0.00;;;;;;;;;;4991605;28;20036;-72
2022/12/10 05:23:28;;;;;;;0.00;0.00;;;;;;;;;;5011721;28;20025;-73
2022/12/10 05:26:00;;;;;;;0.10;0.10;;;;;;;;;;4994069;28;20057;-72
2022/12/10 05:28:27;;;;;;;0.00;0.00;;;;;;;;;;5012203;28;20026;-73
2022/12/10 05:30:53;;;;;;;0.00;0.00;;;;;;;;;;5011320;28;20017;-72
2022/12/10 05:33:20;;;;;;;0.00;0.00;;;;;;;;;;5010671;28;20080;-71
2022/12/10 05:35:57;;;;;;;0.00;0.00;;;;;;;;;;4992467;28;20129;-71
2022/12/10 05:38:24;;;;;;;0.10;0.10;;;;;;;;;;5007784;28;20038;-74
2022/12/10 05:40:50;;;;;;;0.10;0.10;;;;;;;;;;5009396;28;20057;-73
2022/12/10 05:43:17;;;;;;;0.10;0.10;;;;;;;;;;5009635;28;20042;-73
2022/12/10 05:45:43;;;;;;;0.00;0.00;;;;;;;;;;4993296;28;20030;-75
2022/12/10 05:48:10;;;;;;;0.00;0.00;;;;;;;;;;4994389;28;20057;-72
2022/12/10 05:50:37;;;;;;;0.00;0.00;;;;;;;;;;5007809;28;20026;-71
2022/12/10 05:53:03;;;;;;;0.00;0.00;;;;;;;;;;5009491;28;20026;-71
2022/12/10 05:55:31;;;;;;;0.00;0.00;;;;;;;;;;5006341;28;20571;-72
2022/12/10 05:57:58;;;;;;;0.10;0.10;;;;;;;;;;4993944;28;20029;-72
2022/12/10 06:00:24;;;;;;;0.00;0.00;;;;;;;;;;4994140;28;20034;-72
2022/12/10 06:02:51;;;;;;;0.00;0.00;;;;;;;;;;5012134;28;20488;-71
2022/12/10 06:05:17;;;;;;;0.00;0.00;;;;;;;;;;4994008;28;20672;-71
2022/12/10 06:07:44;;;;;;;0.00;0.00;;;;;;;;;;5010866;28;20030;-71
2022/12/10 06:10:10;;;;;;;0.10;0.10;;;;;;;;;;5010519;28;20034;-72
2022/12/10 06:12:37;;;;;;;0.10;0.10;;;;;;;;;;4996235;28;20041;-72
2022/12/10 06:15:04;;;;;;;0.10;0.10;;;;;;;;;;5009844;28;20480;-75
2022/12/10 06:17:30;;;;;;;0.00;0.00;;;;;;;;;;4986780;28;20034;-76
2022/12/10 06:19:56;;;;;;;0.10;0.10;;;;;;;;;;5009331;28;20034;-76
2022/12/10 06:22:23;;;;;;;0.00;0.00;;;;;;;;;;5009076;28;20049;-77
2022/12/10 06:24:49;;;;;;;0.10;0.10;;;;;;;;;;4993544;28;20026;-74
2022/12/10 06:27:15;;;;;;;0.10;0.10;;;;;;;;;;4992081;28;20149;-76
2022/12/10 06:29:42;;;;;;;0.00;0.00;;;;;;;;;;4994214;28;20030;-79
2022/12/10 06:32:08;;;;;;;0.03;0.03;;;;;;;;;;5008778;28;20049;-81
2022/12/10 06:34:34;;;;;;;0.07;0.07;;;;;;;;;;4993502;28;20030;-82
2022/12/10 06:37:01;;;;;;;0.10;0.10;;;;;;;;;;4994172;28;20042;-80
2022/12/10 06:39:27;;;;;;;0.07;0.07;;;;;;;;;;4993851;28;20380;-81
2022/12/10 06:41:53;;;;;;;0.07;0.07;;;;;;;;;;5013633;28;20072;-81
2022/12/10 06:44:20;;;;;;;0.00;0.00;;;;;;;;;;5010500;28;20037;-75
2022/12/10 06:46:46;;;;;;;0.10;0.10;;;;;;;;;;4997087;28;20424;-76
2022/12/10 06:49:12;;;;;;;0.10;0.10;;;;;;;;;;4998096;28;20475;-75
2022/12/10 06:51:38;;;;;;;0.10;0.10;;;;;;;;;;4998056;28;20087;-77
2022/12/10 06:54:05;;;;;;;0.10;0.10;;;;;;;;;;4997985;28;20040;-74
2022/12/10 06:56:31;;;;;;;0.00;0.00;;;;;;;;;;4999158;28;20026;-75
2022/12/10 06:58:58;;;;;;;0.00;0.00;;;;;;;;;;5009381;28;20032;-74
2022/12/10 07:01:28;;;;;;;0.00;0.00;;;;;;;;;;4997196;28;20068;-75
2022/12/10 07:03:55;;;;;;;0.00;0.00;;;;;;;;;;5009734;28;20069;-73
2022/12/10 07:06:22;;;;;;;0.10;0.10;;;;;;;;;;5010654;28;20105;-73
2022/12/10 07:08:48;;;;;;;0.00;0.00;;;;;;;;;;5007251;28;20030;-75
2022/12/10 07:11:16;;;;;;;0.10;0.10;;;;;;;;;;4983987;28;20440;-74
2022/12/10 07:13:42;;;;;;;0.10;0.10;;;;;;;;;;4994925;28;20469;-73
2022/12/10 07:16:16;;;;;;;0.10;0.10;;;;;;;;;;4996213;28;20096;-74
2022/12/10 07:18:43;;;;;;;0.03;0.03;;;;;;;;;;4994882;28;20049;-73
2022/12/10 07:21:21;;;;;;;0.10;0.10;;;;;;;;;;5007719;28;20034;-74
2022/12/10 07:23:48;;;;;;;0.00;0.00;;;;;;;;;;5009913;28;20040;-74
2022/12/10 07:26:14;;;;;;;0.10;0.10;;;;;;;;;;4987929;28;20104;-74
2022/12/10 07:28:41;;;;;;;0.10;0.10;;;;;;;;;;4993673;28;20022;-76
2022/12/10 07:31:08;;;;;;;0.10;0.10;;;;;;;;;;4991544;28;20472;-75
2022/12/10 07:33:35;;;;;;;0.00;0.00;;;;;;;;;;4992895;28;20054;-75
2022/12/10 07:36:08;;;;;;;0.00;0.00;;;;;;;;;;4992385;28;20053;-74
2022/12/10 07:38:35;;;;;;;0.10;0.10;;;;;;;;;;4988610;28;20058;-76
2022/12/10 07:41:08;;;;;;;0.00;0.00;;;;;;;;;;4990217;28;20031;-74
2022/12/10 07:43:35;;;;;;;0.00;0.00;;;;;;;;;;4990063;28;20408;-75
2022/12/10 07:46:09;;;;;;;0.10;0.10;;;;;;;;;;4985993;28;20073;-74
2022/12/10 07:48:36;;;;;;;0.10;0.10;;;;;;;;;;4989876;28;20023;-74
2022/12/10 07:51:03;;;;;;;0.10;0.10;;;;;;;;;;4988922;28;20034;-75
2022/12/10 07:53:29;;;;;;;0.00;0.00;;;;;;;;;;4990077;28;20026;-74
2022/12/10 07:55:55;;;;;;;0.10;0.10;;;;;;;;;;4990642;28;20229;-73
2022/12/10 07:58:22;;;;;;;0.00;0.00;;;;;;;;;;4985617;28;20038;-72
2022/12/10 08:00:48;;;;;;;0.00;0.00;;;;;;;;;;4991575;28;20034;-74
2022/12/10 08:03:15;;;;;;;0.10;0.10;;;;;;;;;;4990323;28;20041;-75
2022/12/10 08:05:42;;;;;;;0.10;0.10;;;;;;;;;;4992263;28;20022;-73
2022/12/10 08:08:08;;;;;;;0.00;0.00;;;;;;;;;;4990230;28;20054;-73
2022/12/10 08:10:35;;;;;;;0.10;0.10;;;;;;;;;;4991898;28;20034;-74
2022/12/10 08:13:01;;;;;;;0.00;0.00;;;;;;;;;;4992066;28;20038;-75
2022/12/10 08:15:30;;;;;;;0.00;0.00;;;;;;;;;;4993720;28;20122;-75
2022/12/10 08:17:58;;;;;;;0.00;0.00;;;;;;;;;;4984628;28;20058;-76
2022/12/10 08:20:25;;;;;;;0.10;0.10;;;;;;;;;;4993547;28;20401;-75
2022/12/10 08:22:52;;;;;;;0.00;0.00;;;;;;;;;;4988090;28;20034;-76
2022/12/10 08:25:18;;;;;;;0.10;0.10;;;;;;;;;;4991889;28;20023;-77
2022/12/10 08:27:44;;;;;;;0.00;0.00;;;;;;;;;;4990000;28;20121;-73
2022/12/10 08:30:11;;;;;;;0.00;0.00;;;;;;;;;;4994236;28;20033;-72
2022/12/10 08:32:37;;;;;;;0.07;0.07;;;;;;;;;;5002288;28;20116;-72
2022/12/10 08:35:04;;;;;;;0.00;0.00;;;;;;;;;;4992998;28;20423;-72
2022/12/10 08:37:30;;;;;;;0.10;0.10;;;;;;;;;;4993285;28;20030;-72
2022/12/10 08:39:56;;;;;;;0.00;0.00;;;;;;;;;;5010501;28;20480;-72
2022/12/10 08:42:22;;;;;;;0.00;0.00;;;;;;;;;;4994689;28;20120;-72
2022/12/10 08:44:50;;;;;;;0.03;0.03;;;;;;;;;;4999139;28;20030;-72
2022/12/10 08:47:16;;;;;;;0.10;0.10;;;;;;;;;;4993805;28;20049;-72
2022/12/10 08:49:43;;;;;;;0.10;0.10;;;;;;;;;;5013513;28;20058;-73
2022/12/10 08:52:09;;;;;;;0.10;0.10;;;;;;;;;;5011173;28;20156;-72
2022/12/10 08:54:35;;;;;;;0.00;0.00;;;;;;;;;;5010643;28;20030;-73
2022/12/10 08:57:02;;;;;;;0.10;0.10;;;;;;;;;;4994897;28;20073;-73
2022/12/10 08:59:28;;;;;;;0.10;0.10;;;;;;;;;;5009639;28;20025;-72
2022/12/10 09:01:55;;;;;;;0.00;0.00;;;;;;;;;;4984863;28;20041;-72
2022/12/10 09:04:22;;;;;;;0.10;0.10;;;;;;;;;;5010279;28;20033;-72
2022/12/10 09:06:48;;;;;;;0.00;0.00;;;;;;;;;;4994617;28;20420;-73
2022/12/10 09:09:14;;;;;;;0.00;0.00;;;;;;;;;;4988531;28;20037;-72
2022/12/10 09:11:41;;;;;;;0.10;0.10;;;;;;;;;;4989071;28;20084;-72
2022/12/10 09:14:07;;;;;;;0.03;0.03;;;;;;;;;;4995112;28;20033;-73
2022/12/10 09:16:35;;;;;;;0.00;0.00;;;;;;;;;;4995207;28;20158;-71
2022/12/10 09:19:02;;;;;;;0.00;0.00;;;;;;;;;;4997118;28;20034;-71
2022/12/10 09:21:30;;;;;;;0.00;0.00;;;;;;;;;;4992266;28;20038;-72
2022/12/10 09:23:57;;;;;;;0.10;0.10;;;;;;;;;;5006567;28;20495;-74
2022/12/10 09:26:24;;;;;;;0.10;0.10;;;;;;;;;;4990558;28;20077;-73
2022/12/10 09:28:50;;;;;;;0.00;0.00;;;;;;;;;;4990494;28;20038;-74
2022/12/10 09:31:18;;;;;;;0.00;0.00;;;;;;;;;;5012585;28;20483;-73
2022/12/10 09:33:45;;;;;;;0.10;0.10;;;;;;;;;;4992564;28;20180;-72
2022/12/10 09:36:12;;;;;;;0.00;0.00;;;;;;;;;;4991202;28;20081;-71
2022/12/10 09:38:39;;;;;;;0.10;0.10;;;;;;;;;;4983490;28;20034;-71
2022/12/10 09:41:31;;;;;;;0.00;0.00;;;;;;;;;;4987270;28;20049;-71
2022/12/10 09:44:06;;;;;;;0.00;0.00;;;;;;;;;;4962648;28;20053;-71
2022/12/10 09:46:41;;;;;;;0.07;0.07;;;;;;;;;;4986168;28;20117;-73
2022/12/10 09:49:08;;;;;;;0.10;0.10;;;;;;;;;;4983707;28;20030;-72
2022/12/10 09:51:36;;;;;;;0.00;0.00;;;;;;;;;;4992376;28;20030;-71
2022/12/10 09:54:04;;;;;;;0.07;0.07;;;;;;;;;;4990028;28;20085;-72
2022/12/10 09:56:34;;;;;;;0.10;0.10;;;;;;;;;;4987469;28;20473;-71
2022/12/10 09:59:01;;;;;;;0.10;0.10;;;;;;;;;;4991558;28;20053;-74
2022/12/10 10:01:28;;;;;;;0.10;0.10;;;;;;;;;;4992522;28;20465;-71
2022/12/10 10:03:55;;;;;;;0.00;0.00;;;;;;;;;;4984091;28;20038;-74
2022/12/10 10:06:22;;;;;;;0.10;0.10;;;;;;;;;;4988360;28;20510;-72
2022/12/10 10:08:49;;;;;;;0.10;0.10;;;;;;;;;;4991869;28;20045;-72
2022/12/10 10:11:20;;;;;;;0.07;0.07;;;;;;;;;;4983626;28;20031;-71
2022/12/10 10:13:49;;;;;;;0.10;0.10;;;;;;;;;;4988632;28;20385;-71
2022/12/10 10:16:16;;;;;;;0.00;0.00;;;;;;;;;;4991790;28;20030;-71
2022/12/10 10:18:44;;;;;;;0.03;0.03;;;;;;;;;;4995176;28;20116;-71
2022/12/10 10:21:25;;;;;;;0.00;0.00;;;;;;;;;;4989197;28;20393;-72
2022/12/10 10:23:51;;;;;;;0.00;0.00;;;;;;;;;;4990469;28;20034;-71
2022/12/10 10:26:18;;;;;;;0.10;0.10;;;;;;;;;;4991438;28;20031;-72
2022/12/10 10:28:45;;;;;;;0.10;0.10;;;;;;;;;;4985481;28;20041;-72
2022/12/10 10:31:16;;;;;;;0.00;0.00;;;;;;;;;;4995747;28;20022;-72
2022/12/10 10:33:50;;;;;;;0.10;0.10;;;;;;;;;;5011349;28;20053;-71
2022/12/10 10:36:16;;;;;;;0.00;0.00;;;;;;;;;;4997702;28;20124;-72
2022/12/10 10:38:48;;;;;;;0.07;0.07;;;;;;;;;;4996525;28;20034;-72
2022/12/10 10:41:15;;;;;;;0.00;0.00;;;;;;;;;;4995369;28;20480;-74
2022/12/10 10:43:44;;;;;;;0.10;0.10;;;;;;;;;;5012796;28;20045;-73
2022/12/10 10:46:13;;;;;;;0.03;0.03;;;;;;;;;;5013038;28;20030;-74
2022/12/10 10:48:39;;;;;;;0.10;0.10;;;;;;;;;;5013102;28;20030;-74
2022/12/10 10:51:18;;;;;;;0.00;0.00;;;;;;;;;;4996603;28;20029;-73
2022/12/10 10:53:51;;;;;;;0.10;0.10;;;;;;;;;;5010189;28;20033;-74
2022/12/10 10:56:24;;;;;;;0.07;0.07;;;;;;;;;;4996093;28;20030;-73
2022/12/10 10:58:55;;;;;;;0.10;0.10;;;;;;;;;;5002365;28;20034;-74
2022/12/10 11:01:22;;;;;;;0.00;0.00;;;;;;;;;;4995255;28;20038;-73
2022/12/10 11:03:50;;;;;;;0.00;0.00;;;;;;;;;;5010581;28;20544;-75
2022/12/10 11:06:17;;;;;;;0.00;0.00;;;;;;;;;;5013164;28;20472;-73
2022/12/10 11:08:45;;;;;;;0.10;0.10;;;;;;;;;;5014252;28;20029;-74
2022/12/10 11:11:13;;;;;;;0.00;0.00;;;;;;;;;;4998602;28;20506;-74
2022/12/10 11:13:40;;;;;;;0.00;0.00;;;;;;;;;;4997463;28;20396;-73
2022/12/10 11:16:16;;;;;;;0.10;0.10;;;;;;;;;;4997678;28;20108;-74
2022/12/10 11:18:51;;;;;;;0.10;0.10;;;;;;;;;;5014792;28;20468;-72
2022/12/10 11:21:21;;;;;;;0.00;0.00;;;;;;;;;;5014974;28;20520;-74
2022/12/10 11:23:49;;;;;;;0.00;0.00;;;;;;;;;;5005112;28;20025;-74
2022/12/10 11:26:18;;;;;;;0.10;0.10;;;;;;;;;;5015224;28;20033;-71
2022/12/10 11:28:45;;;;;;;0.00;0.00;;;;;;;;;;4991947;28;20073;-71
2022/12/10 11:31:14;;;;;;;0.00;0.00;;;;;;;;;;5008320;28;20117;-71
2022/12/10 11:33:46;;;;;;;0.00;0.00;;;;;;;;;;4982408;28;20055;-70
2022/12/10 11:36:39;;;;;;;0.10;0.10;;;;;;;;;;4963705;28;20031;-72
2022/12/10 11:39:17;;;;;;;0.00;0.00;;;;;;;;;;4966775;28;20090;-71
2022/12/10 11:41:50;;;;;;;0.00;0.00;;;;;;;;;;4947492;28;20026;-71
2022/12/10 11:44:31;;;;;;;0.10;0.10;;;;;;;;;;4974092;28;20035;-71
2022/12/10 11:47:15;;;;;;;0.00;0.00;;;;;;;;;;4969511;28;20083;-70
2022/12/10 11:49:47;;;;;;;0.03;0.03;;;;;;;;;;4984587;28;20110;-72
2022/12/10 11:52:13;;;;;;;0.00;0.00;;;;;;;;;;4973444;28;20053;-69
2022/12/10 11:54:43;;;;;;;0.00;0.00;;;;;;;;;;4959058;28;20031;-72
2022/12/10 11:57:09;;;;;;;0.10;0.10;;;;;;;;;;4969125;28;20373;-71
2022/12/10 11:59:41;;;;;;;0.00;0.00;;;;;;;;;;4971390;28;20031;-72
2022/12/10 12:02:26;;;;;;;0.00;0.00;;;;;;;;;;4947712;28;20023;-72
2022/12/10 12:04:59;;;;;;;0.03;0.03;;;;;;;;;;4977206;28;20066;-72
2022/12/10 12:07:41;;;;;;;0.00;0.00;;;;;;;;;;4969129;28;20026;-69
2022/12/10 12:10:45;;;;;;;0.00;0.00;;;;;;;;;;4967493;28;20432;-70
2022/12/10 12:13:24;;;;;;;0.03;0.03;;;;;;;;;;4872597;29;20029;-71
2022/12/10 12:15:50;;;;;;;0.00;0.00;;;;;;;;;;4893889;29;20051;-70
2022/12/10 12:18:19;;;;;;;0.00;0.00;;;;;;;;;;4926976;29;20079;-71
2022/12/10 12:20:57;;;;;;;0.00;0.00;;;;;;;;;;4950267;28;20110;-71
2022/12/10 12:23:33;;;;;;;0.00;0.00;;;;;;;;;;4976732;28;20500;-71
2022/12/10 12:26:12;;;;;;;0.00;0.00;;;;;;;;;;4984461;28;20110;-71
2022/12/10 12:28:48;;;;;;;0.00;0.00;;;;;;;;;;4977737;28;20015;-70
2022/12/10 12:31:17;;;;;;;0.00;0.00;;;;;;;;;;4970430;28;20366;-71
2022/12/10 12:33:52;;;;;;;0.00;0.00;;;;;;;;;;5003585;28;20049;-71
2022/12/10 12:36:22;;;;;;;0.00;0.00;;;;;;;;;;4993333;28;20488;-71
2022/12/10 12:39:00;;;;;;;0.00;0.00;;;;;;;;;;5003764;28;20018;-73
2022/12/10 12:41:41;;;;;;;0.00;0.00;;;;;;;;;;5004559;28;20052;-71
2022/12/10 12:44:29;;;;;;;0.00;0.00;;;;;;;;;;5004375;28;20384;-72
2022/12/10 12:46:56;;;;;;;0.00;0.00;;;;;;;;;;4994051;28;20041;-71
2022/12/10 12:49:37;;;;;;;0.00;0.00;;;;;;;;;;5002839;28;20676;-70
2022/12/10 12:52:19;;;;;;;0.00;0.00;;;;;;;;;;5006587;28;20068;-71
2022/12/10 12:54:46;;;;;;;0.00;0.00;;;;;;;;;;5005728;28;20034;-70
2022/12/10 12:57:22;;;;;;;0.00;0.00;;;;;;;;;;4994224;28;20461;-69
2022/12/10 12:59:52;;;;;;;0.00;0.00;;;;;;;;;;4992759;28;20018;-71
2022/12/10 13:02:45;;;;;;;0.00;0.00;;;;;;;;;;4994050;28;20076;-70
2022/12/10 13:05:21;;;;;;;0.00;0.00;;;;;;;;;;4994761;28;20058;-72
2022/12/10 13:08:06;;;;;;;0.00;0.00;;;;;;;;;;5004540;28;20101;-71
2022/12/10 13:10:43;;;;;;;0.00;0.00;;;;;;;;;;4993993;28;20030;-70
2022/12/10 13:13:30;;;;;;;0.00;0.00;;;;;;;;;;4983458;28;20034;-72
2022/12/10 13:15:56;;;;;;;0.00;0.00;;;;;;;;;;4993194;28;20036;-69
2022/12/10 13:18:34;;;;;;;0.00;0.00;;;;;;;;;;4994256;28;20082;-70
2022/12/10 13:21:18;;;;;;;0.00;0.00;;;;;;;;;;4976154;28;20030;-71
2022/12/10 13:23:50;;;;;;;0.00;0.00;;;;;;;;;;4994669;28;20450;-71
2022/12/10 13:26:27;;;;;;;0.00;0.00;;;;;;;;;;4995137;28;20534;-72
2022/12/10 13:28:55;;;;;;;0.00;0.00;;;;;;;;;;4995532;28;20369;-71
2022/12/10 13:31:40;;;;;;;0.00;0.00;;;;;;;;;;4994822;28;20033;-70
2022/12/10 13:34:23;;;;;;;0.00;0.00;;;;;;;;;;5005620;28;20450;-70
2022/12/10 13:36:49;;;;;;;0.00;0.00;;;;;;;;;;4993712;28;20068;-71
2022/12/10 13:39:32;;;;;;;0.00;0.00;;;;;;;;;;5005428;28;20034;-70
2022/12/10 13:45:24;;;;;;;0.00;0.00;;;;;;;;;;5011004;28;20045;-72
2022/12/10 13:47:55;;;;;;;0.00;0.00;;;;;;;;;;5004002;28;20105;-70
2022/12/10 13:50:24;;;;;;;0.00;0.00;;;;;;;;;;4994520;28;20370;-70
2022/12/10 13:53:03;;;;;;;0.00;0.00;;;;;;;;;;5012988;28;20165;-70
2022/12/10 13:55:39;;;;;;;0.00;0.00;;;;;;;;;;5012123;28;20026;-70
2022/12/10 13:58:24;;;;;;;0.00;0.00;;;;;;;;;;5000988;28;20489;-70
2022/12/10 14:00:55;;;;;;;0.00;0.00;;;;;;;;;;5011565;28;20077;-70
2022/12/10 14:03:27;;;;;;;0.00;0.00;;;;;;;;;;5004235;28;20105;-70
2022/12/10 14:06:03;;;;;;;0.00;0.00;;;;;;;;;;4993792;28;20022;-69
2022/12/10 14:08:33;;;;;;;0.00;0.00;;;;;;;;;;5009282;28;20014;-69
2022/12/10 14:11:00;;;;;;;0.00;0.00;;;;;;;;;;4991938;28;20069;-69
2022/12/10 14:13:36;;;;;;;0.00;0.00;;;;;;;;;;4994681;28;20037;-69
2022/12/10 14:16:04;;;;;;;0.00;0.00;;;;;;;;;;5011183;28;20041;-70
2022/12/10 14:18:31;;;;;;;0.00;0.00;;;;;;;;;;5012582;28;20030;-70
2022/12/10 14:20:58;;;;;;;0.00;0.00;;;;;;;;;;5010740;28;20034;-70
2022/12/10 14:23:40;;;;;;;0.00;0.00;;;;;;;;;;4975088;28;20034;-69
2022/12/10 14:26:20;;;;;;;0.00;0.00;;;;;;;;;;4992220;28;20029;-70
2022/12/10 14:28:56;;;;;;;0.00;0.00;;;;;;;;;;5007037;28;20476;-70
2022/12/10 14:31:27;;;;;;;0.00;0.00;;;;;;;;;;5009307;28;20053;-70
2022/12/10 14:33:56;;;;;;;0.00;0.00;;;;;;;;;;5000667;28;20054;-70
2022/12/10 14:36:30;;;;;;;0.00;0.00;;;;;;;;;;4990048;28;20138;-70
2022/12/10 14:38:57;;;;;;;0.00;0.00;;;;;;;;;;4993902;28;20030;-70
2022/12/10 14:41:24;;;;;;;0.00;0.00;;;;;;;;;;5011165;28;20472;-70
2022/12/10 14:43:52;;;;;;;0.00;0.00;;;;;;;;;;4985428;28;20058;-69
2022/12/10 14:46:31;;;;;;;0.00;0.00;;;;;;;;;;4987325;28;20022;-70
2022/12/10 14:48:57;;;;;;;0.00;0.00;;;;;;;;;;4992277;28;20404;-70
2022/12/10 14:51:25;;;;;;;0.00;0.00;;;;;;;;;;4993796;28;20053;-70
2022/12/10 14:53:52;;;;;;;0.00;0.00;;;;;;;;;;5005806;28;20093;-70
2022/12/10 14:56:27;;;;;;;0.00;0.00;;;;;;;;;;4979554;28;20026;-71
2022/12/10 14:58:58;;;;;;;0.00;0.00;;;;;;;;;;4986769;28;20027;-70
2022/12/10 15:01:31;;;;;;;0.00;0.00;;;;;;;;;;4992037;28;20022;-72
2022/12/10 15:04:02;;;;;;;0.00;0.00;;;;;;;;;;4986868;28;20468;-70
2022/12/10 15:06:28;;;;;;;0.00;0.00;;;;;;;;;;4986493;28;20019;-70
2022/12/10 15:08:56;;;;;;;0.00;0.00;;;;;;;;;;4979915;28;20038;-70